createdAt,value
2018-09-14T00:00:39.005Z,10.27
2018-09-14T00:03:14.013Z,10.03
2018-09-14T00:05:49.236Z,9.97
2018-09-14T00:08:23.962Z,9.70
2018-09-14T00:10:59.227Z,9.20
2018-09-14T00:13:35.085Z,9.73
2018-09-14T00:16:11.252Z,10.63
2018-09-14T00:18:46.964Z,9.93
2018-09-14T00:21:22.282Z,10.40
2018-09-14T00:23:57.179Z,10.40
2018-09-14T00:26:32.549Z,10.30
2018-09-14T00:29:07.742Z,10.40
2018-09-14T00:31:42.252Z,10.10
2018-09-14T00:34:17.192Z,11.00
2018-09-14T00:36:51.994Z,10.60
2018-09-14T00:39:26.931Z,10.30
2018-09-14T00:42:02.616Z,11.40
2018-09-14T00:44:39.468Z,11.67
2018-09-14T00:47:15.266Z,10.50
2018-09-14T00:49:50.915Z,13.13
2018-09-14T00:52:26.420Z,13.27
2018-09-14T00:55:01.599Z,13.07
2018-09-14T00:57:37.488Z,13.43
2018-09-14T01:00:13.309Z,14.03
2018-09-14T01:02:49.288Z,13.60
2018-09-14T01:05:24.864Z,13.90
2018-09-14T01:08:00.609Z,13.33
2018-09-14T01:10:36.182Z,14.37
2018-09-14T01:13:12.499Z,14.23
2018-09-14T01:15:47.751Z,14.47
2018-09-14T01:18:23.433Z,14.30
2018-09-14T01:20:58.396Z,14.97
2018-09-14T01:23:33.886Z,13.83
2018-09-14T01:26:10.298Z,14.70
2018-09-14T01:28:46.635Z,14.00
2018-09-14T01:31:23.305Z,14.30
2018-09-14T01:33:59.258Z,14.00
2018-09-14T01:36:34.557Z,14.37
2018-09-14T01:39:12.271Z,18.10
2018-09-14T01:41:47.207Z,15.33
2018-09-14T01:44:22.804Z,15.00
2018-09-14T01:46:58.634Z,13.17
2018-09-14T01:49:34.748Z,15.67
2018-09-14T01:52:10.789Z,13.77
2018-09-14T01:54:46.309Z,13.73
2018-09-14T01:57:22.699Z,14.10
2018-09-14T01:59:58.409Z,14.27
2018-09-14T02:02:33.487Z,14.47
2018-09-14T02:05:09.311Z,13.87
2018-09-14T02:07:44.914Z,13.03
2018-09-14T02:10:24.495Z,14.00
2018-09-14T02:13:00.153Z,12.80
2018-09-14T02:15:36.135Z,12.60
2018-09-14T02:18:12.011Z,13.47
2018-09-14T02:20:47.995Z,13.90
2018-09-14T02:23:23.910Z,11.57
2018-09-14T02:25:59.249Z,12.13
2018-09-14T02:28:33.857Z,12.63
2018-09-14T02:31:08.768Z,12.00
2018-09-14T02:33:44.559Z,16.07
2018-09-14T02:36:20.273Z,13.20
2018-09-14T02:38:55.659Z,13.07
2018-09-14T02:41:30.466Z,11.20
2018-09-14T02:44:05.725Z,12.10
2018-09-14T02:46:41.654Z,11.67
2018-09-14T02:49:17.579Z,12.53
2018-09-14T02:51:52.758Z,11.20
2018-09-14T02:54:27.884Z,11.33
2018-09-14T02:57:03.702Z,12.13
2018-09-14T02:59:39.909Z,11.60
2018-09-14T03:02:15.830Z,12.17
2018-09-14T03:04:51.794Z,11.93
2018-09-14T03:07:27.517Z,11.73
2018-09-14T03:10:03.380Z,12.40
2018-09-14T03:12:38.542Z,13.40
2018-09-14T03:15:13.528Z,12.90
2018-09-14T03:17:49.710Z,15.20
2018-09-14T03:20:25.171Z,17.00
2018-09-14T03:23:01.755Z,16.50
2018-09-14T03:25:36.867Z,18.20
2018-09-14T03:28:13.010Z,16.80
2018-09-14T03:30:48.945Z,16.37
2018-09-14T03:33:24.916Z,16.77
2018-09-14T03:36:00.284Z,17.07
2018-09-14T03:38:36.278Z,17.90
2018-09-14T03:41:11.573Z,17.80
2018-09-14T03:43:47.279Z,18.40
2018-09-14T03:46:22.315Z,17.77
2018-09-14T03:48:57.051Z,16.80
2018-09-14T03:51:32.326Z,18.10
2018-09-14T03:54:07.374Z,18.50
2018-09-14T03:56:43.198Z,19.07
2018-09-14T03:59:18.738Z,18.80
2018-09-14T04:01:54.904Z,16.90
2018-09-14T04:04:30.426Z,18.60
2018-09-14T04:07:06.884Z,18.17
2018-09-14T04:09:42.449Z,19.13
2018-09-14T04:12:17.353Z,19.73
2018-09-14T04:14:52.738Z,18.13
2018-09-14T04:17:27.923Z,19.40
2018-09-14T04:20:03.131Z,19.47
2018-09-14T04:22:39.079Z,17.97
2018-09-14T04:25:14.506Z,16.40
2018-09-14T04:27:49.456Z,17.50
2018-09-14T04:30:25.102Z,18.23
2018-09-14T04:33:00.261Z,18.07
2018-09-14T04:35:35.893Z,19.20
2018-09-14T04:38:12.030Z,19.03
2018-09-14T04:40:46.763Z,17.33
2018-09-14T04:43:22.639Z,18.90
2018-09-14T04:45:57.438Z,18.57
2018-09-14T04:48:33.551Z,19.60
2018-09-14T04:51:09.757Z,19.23
2018-09-14T04:53:44.916Z,18.33
2018-09-14T04:56:20.145Z,20.37
2018-09-14T04:58:55.728Z,20.50
2018-09-14T05:01:30.630Z,23.93
2018-09-14T05:04:05.867Z,21.53
2018-09-14T05:06:41.363Z,20.30
2018-09-14T05:09:17.097Z,23.10
2018-09-14T05:11:52.726Z,22.07
2018-09-14T05:14:28.979Z,23.40
2018-09-14T05:17:04.705Z,21.70
2018-09-14T05:19:40.665Z,22.80
2018-09-14T05:22:15.628Z,22.97
2018-09-14T05:24:52.305Z,23.37
2018-09-14T05:27:27.893Z,23.30
2018-09-14T05:30:03.590Z,21.97
2018-09-14T05:32:40.310Z,25.27
2018-09-14T05:35:15.926Z,23.73
2018-09-14T05:37:51.788Z,25.80
2018-09-14T05:40:27.623Z,24.50
2018-09-14T05:43:03.774Z,25.37
2018-09-14T05:45:39.158Z,25.73
2018-09-14T05:48:14.357Z,24.50
2018-09-14T05:50:50.097Z,25.20
2018-09-14T05:53:25.461Z,25.97
2018-09-14T05:56:00.516Z,23.83
2018-09-14T05:58:36.011Z,25.57
2018-09-14T06:01:11.198Z,27.17
2018-09-14T06:03:46.459Z,27.10
2018-09-14T06:06:22.865Z,27.83
2018-09-14T06:08:57.916Z,29.03
2018-09-14T06:11:32.853Z,27.67
2018-09-14T06:14:07.797Z,29.17
2018-09-14T06:16:42.840Z,30.57
2018-09-14T06:19:17.565Z,30.50
2018-09-14T06:21:52.504Z,27.80
2018-09-14T06:24:28.822Z,29.23
2018-09-14T06:27:04.007Z,32.17
2018-09-14T06:29:38.845Z,30.60
2018-09-14T06:32:14.694Z,30.53
2018-09-14T06:34:49.524Z,29.97
2018-09-14T06:37:24.168Z,30.80
2018-09-14T06:39:59.164Z,30.23
2018-09-14T06:42:35.863Z,28.00
2018-09-14T06:45:10.874Z,28.47
2018-09-14T06:47:46.338Z,27.23
2018-09-14T06:50:21.354Z,25.20
2018-09-14T06:52:57.132Z,26.60
2018-09-14T06:55:31.761Z,24.83
2018-09-14T06:58:06.699Z,25.37
2018-09-14T07:00:42.666Z,24.40
2018-09-14T07:03:18.276Z,29.30
2018-09-14T07:05:52.951Z,27.10
2018-09-14T07:08:28.118Z,21.70
2018-09-14T07:11:03.060Z,21.70
2018-09-14T07:13:38.632Z,22.10
2018-09-14T07:16:14.470Z,21.63
2018-09-14T07:18:50.559Z,20.17
2018-09-14T07:21:25.741Z,23.27
2018-09-14T07:24:01.160Z,19.57
2018-09-14T07:26:37.049Z,20.80
2018-09-14T07:29:12.566Z,18.40
2018-09-14T07:31:47.958Z,19.13
2018-09-14T07:34:22.959Z,19.00
2018-09-14T07:36:57.928Z,15.60
2018-09-14T07:39:33.659Z,17.70
2018-09-14T07:42:09.311Z,17.10
2018-09-14T07:44:44.287Z,16.97
2018-09-14T07:47:21.270Z,17.83
2018-09-14T07:49:56.705Z,16.30
2018-09-14T07:52:31.815Z,17.40
2018-09-14T07:55:08.086Z,15.53
2018-09-14T07:57:43.108Z,15.70
2018-09-14T08:00:18.230Z,17.53
2018-09-14T08:02:53.198Z,16.47
2018-09-14T08:05:28.774Z,15.30
2018-09-14T08:08:03.785Z,16.10
2018-09-14T08:10:39.364Z,15.37
2018-09-14T08:13:18.227Z,16.73
2018-09-14T08:15:54.628Z,16.60
2018-09-14T08:18:30.390Z,17.20
2018-09-14T08:21:06.153Z,17.50
2018-09-14T08:23:41.772Z,18.00
2018-09-14T08:26:17.448Z,18.93
2018-09-14T08:28:52.436Z,19.60
2018-09-14T08:31:28.936Z,19.57
2018-09-14T08:34:03.652Z,20.70
2018-09-14T08:36:38.781Z,19.80
2018-09-14T08:39:13.705Z,22.20
2018-09-14T08:41:48.784Z,18.73
2018-09-14T08:44:23.957Z,20.90
2018-09-14T08:46:59.397Z,21.00
2018-09-14T08:49:34.682Z,20.20
2018-09-14T08:52:10.530Z,19.60
2018-09-14T08:54:46.653Z,16.67
2018-09-14T08:57:21.956Z,18.67
2018-09-14T08:59:56.851Z,17.53
2018-09-14T09:02:32.543Z,18.63
2018-09-14T09:05:08.207Z,16.83
2018-09-14T09:07:43.041Z,17.83
2018-09-14T09:10:18.747Z,10.73
2018-09-14T09:12:53.844Z,11.60
2018-09-14T09:15:29.092Z,9.63
2018-09-14T09:18:05.214Z,9.20
2018-09-14T09:20:40.573Z,9.03
2018-09-14T09:23:15.681Z,8.90
2018-09-14T09:25:51.736Z,7.13
2018-09-14T09:28:28.491Z,7.40
2018-09-14T09:31:03.653Z,6.73
2018-09-14T09:33:39.499Z,7.63
2018-09-14T09:36:15.744Z,8.97
2018-09-14T09:38:51.053Z,9.37
2018-09-14T09:41:26.543Z,8.63
2018-09-14T09:44:02.371Z,7.33
2018-09-14T09:46:38.205Z,7.90
2018-09-14T09:49:13.734Z,9.10
2018-09-14T09:51:49.864Z,9.37
2018-09-14T09:54:25.209Z,9.93
2018-09-14T09:57:00.400Z,8.43
2018-09-14T09:59:35.943Z,7.00
2018-09-14T10:02:16.922Z,9.40
2018-09-14T10:04:57.756Z,7.93
2018-09-14T10:07:33.268Z,7.77
2018-09-14T10:10:11.976Z,8.13
2018-09-14T10:12:46.641Z,7.80
2018-09-14T10:15:21.712Z,8.00
2018-09-14T10:17:57.946Z,9.00
2018-09-14T10:20:34.138Z,8.37
2018-09-14T10:23:09.036Z,7.70
2018-09-14T10:25:44.128Z,9.80
2018-09-14T10:28:19.859Z,7.50
2018-09-14T10:30:55.292Z,7.70
2018-09-14T10:33:30.859Z,8.70
2018-09-14T10:36:06.516Z,9.60
2018-09-14T10:38:41.502Z,8.17
2018-09-14T10:41:17.274Z,8.23
2018-09-14T10:43:52.667Z,8.40
2018-09-14T10:46:29.556Z,7.40
2018-09-14T10:49:05.348Z,8.70
2018-09-14T10:51:41.602Z,8.30
2018-09-14T10:54:17.533Z,8.33
2018-09-14T10:56:52.662Z,9.30
2018-09-14T10:59:27.515Z,9.10
2018-09-14T11:02:03.882Z,8.87
2018-09-14T11:04:38.731Z,9.20
2018-09-14T11:07:13.533Z,8.93
2018-09-14T11:09:48.129Z,8.97
2018-09-14T11:12:23.115Z,9.17
2018-09-14T11:14:58.161Z,8.70
2018-09-14T11:17:33.088Z,8.73
2018-09-14T11:20:08.742Z,8.10
2018-09-14T11:22:44.064Z,7.57
2018-09-14T11:25:19.464Z,9.60
2018-09-14T11:27:55.544Z,7.47
2018-09-14T11:30:30.950Z,7.33
2018-09-14T11:33:07.315Z,7.60
2018-09-14T11:35:42.842Z,7.90
2018-09-14T11:38:17.831Z,8.13
2018-09-14T11:40:53.408Z,7.73
2018-09-14T11:43:28.476Z,7.47
2018-09-14T11:46:04.229Z,8.20
2018-09-14T11:48:39.877Z,7.53
2018-09-14T11:51:16.024Z,8.30
2018-09-14T11:53:51.865Z,8.90
2018-09-14T11:56:26.783Z,9.83
2018-09-14T11:59:01.656Z,8.23
2018-09-14T12:01:37.156Z,9.37
2018-09-14T12:04:12.538Z,7.40
2018-09-14T12:06:48.303Z,7.73
2018-09-14T12:09:24.021Z,7.33
2018-09-14T12:11:59.448Z,7.57
2018-09-14T12:14:34.581Z,7.57
2018-09-14T12:17:10.345Z,7.03
2018-09-14T12:19:45.254Z,6.90
2018-09-14T12:22:20.551Z,6.80
2018-09-14T12:24:55.699Z,7.33
2018-09-14T12:27:32.036Z,7.83
2018-09-14T12:30:07.696Z,6.90
2018-09-14T12:32:42.467Z,6.77
2018-09-14T12:35:18.157Z,7.40
2018-09-14T12:37:53.371Z,7.33
2018-09-14T12:40:29.034Z,8.30
2018-09-14T12:43:04.718Z,7.40
2018-09-14T12:45:39.591Z,6.17
2018-09-14T12:48:15.397Z,7.53
2018-09-14T12:50:51.133Z,7.40
2018-09-14T12:53:25.921Z,7.67
2018-09-14T12:56:01.458Z,7.27
2018-09-14T12:58:36.549Z,8.33
2018-09-14T13:01:12.771Z,6.90
2018-09-14T13:03:48.632Z,7.47
2018-09-14T13:06:23.838Z,7.43
2018-09-14T13:08:59.474Z,7.83
2018-09-14T13:11:34.274Z,8.10
2018-09-14T13:14:09.501Z,7.83
2018-09-14T13:16:45.571Z,7.60
2018-09-14T13:19:21.425Z,7.20
2018-09-14T13:21:56.876Z,9.40
2018-09-14T13:24:33.547Z,8.57
2018-09-14T13:27:08.550Z,7.93
2018-09-14T13:29:44.551Z,8.50
2018-09-14T13:32:19.863Z,8.80
2018-09-14T13:34:55.836Z,7.73
2018-09-14T13:37:31.155Z,8.57
2018-09-14T13:40:07.528Z,9.63
2018-09-14T13:42:42.863Z,8.23
2018-09-14T13:45:19.106Z,8.90
2018-09-14T13:47:54.479Z,7.67
2018-09-14T13:50:29.536Z,9.10
2018-09-14T13:53:05.642Z,9.10
2018-09-14T13:55:41.249Z,7.83
2018-09-14T13:58:16.677Z,7.30
2018-09-14T14:00:52.487Z,6.77
2018-09-14T14:03:27.528Z,7.40
2018-09-14T14:06:03.423Z,7.77
2018-09-14T14:08:39.767Z,7.00
2018-09-14T14:11:15.152Z,7.50
2018-09-14T14:13:50.195Z,7.00
2018-09-14T14:16:25.268Z,8.93
2018-09-14T14:19:00.164Z,9.90
2018-09-14T14:21:35.114Z,7.80
2018-09-14T14:24:10.032Z,9.20
2018-09-14T14:26:45.384Z,8.70
2018-09-14T14:29:20.234Z,9.13
2018-09-14T14:31:56.060Z,8.90
2018-09-14T14:34:31.104Z,23.93
2018-09-14T14:37:06.525Z,8.70
2018-09-14T14:39:41.580Z,7.30
2018-09-14T14:42:16.626Z,9.23
2018-09-14T14:44:51.629Z,6.93
2018-09-14T14:47:27.074Z,5.10
2018-09-14T14:50:01.742Z,5.60
2018-09-14T14:52:36.686Z,5.87
2018-09-14T14:55:11.551Z,5.20
2018-09-14T14:57:46.361Z,5.30
2018-09-14T15:00:21.628Z,4.80
2018-09-14T15:02:56.420Z,4.60
2018-09-14T15:05:32.674Z,5.30
2018-09-14T15:08:08.417Z,4.10
2018-09-14T15:10:44.003Z,4.50
2018-09-14T15:13:20.280Z,4.80
2018-09-14T15:15:55.730Z,4.73
2018-09-14T15:18:31.462Z,4.73
2018-09-14T15:21:08.294Z,5.53
2018-09-14T15:23:43.353Z,5.77
2018-09-14T15:26:18.454Z,5.03
2018-09-14T15:28:55.195Z,5.07
2018-09-14T15:31:30.463Z,5.17
2018-09-14T15:34:07.120Z,6.10
2018-09-14T15:36:43.571Z,5.70
2018-09-14T15:39:19.011Z,5.07
2018-09-14T15:41:53.884Z,5.27
2018-09-14T15:44:29.358Z,4.83
2018-09-14T15:47:04.981Z,5.93
2018-09-14T15:49:39.885Z,5.73
2018-09-14T15:52:14.529Z,5.27
2018-09-14T15:54:49.376Z,6.00
2018-09-14T15:57:24.772Z,5.40
2018-09-14T16:00:00.334Z,6.27
2018-09-14T16:02:35.367Z,7.87
2018-09-14T16:05:10.814Z,5.47
2018-09-14T16:07:46.589Z,6.10
2018-09-14T16:10:23.508Z,5.93
2018-09-14T16:12:58.591Z,6.13
2018-09-14T16:15:33.436Z,6.27
2018-09-14T16:18:08.885Z,6.63
2018-09-14T16:20:44.146Z,6.37
2018-09-14T16:23:19.611Z,6.93
2018-09-14T16:25:54.614Z,6.70
2018-09-14T16:28:29.469Z,6.40
2018-09-14T16:31:04.694Z,6.10
2018-09-14T16:33:40.365Z,6.57
2018-09-14T16:36:15.516Z,8.40
2018-09-14T16:38:51.233Z,6.30
2018-09-14T16:41:27.045Z,6.10
2018-09-14T16:44:02.090Z,5.77
2018-09-14T16:46:37.291Z,6.93
2018-09-14T16:49:12.923Z,5.80
2018-09-14T16:51:48.606Z,6.67
2018-09-14T16:54:23.683Z,7.47
2018-09-14T16:56:58.741Z,6.20
2018-09-14T16:59:33.582Z,6.13
2018-09-14T17:02:09.190Z,6.20
2018-09-14T17:04:44.235Z,6.47
2018-09-14T17:07:19.226Z,6.10
2018-09-14T17:09:54.090Z,8.40
2018-09-14T17:12:29.209Z,5.70
2018-09-14T17:15:04.588Z,6.63
2018-09-14T17:17:39.779Z,7.77
2018-09-14T17:20:14.830Z,5.83
2018-09-14T17:22:49.652Z,5.77
2018-09-14T17:25:24.489Z,5.80
2018-09-14T17:28:00.316Z,6.97
2018-09-14T17:30:36.047Z,6.43
2018-09-14T17:33:10.915Z,6.83
2018-09-14T17:35:45.580Z,5.63
2018-09-14T17:38:20.375Z,7.20
2018-09-14T17:40:55.280Z,8.70
2018-09-14T17:43:30.332Z,7.23
2018-09-14T17:46:05.856Z,8.00
2018-09-14T17:48:40.765Z,6.80
2018-09-14T17:51:15.871Z,12.83
2018-09-14T17:53:50.673Z,7.27
2018-09-14T17:56:25.917Z,8.50
2018-09-14T17:59:00.639Z,6.90
2018-09-14T18:01:35.870Z,8.20
2018-09-14T18:04:11.515Z,7.83
2018-09-14T18:06:46.947Z,7.00
2018-09-14T18:09:22.098Z,7.47
2018-09-14T18:11:56.988Z,7.50
2018-09-14T18:14:32.406Z,6.67
2018-09-14T18:17:07.254Z,6.53
2018-09-14T18:19:42.985Z,7.73
2018-09-14T18:22:18.386Z,7.70
2018-09-14T18:24:53.830Z,6.90
2018-09-14T18:27:29.263Z,7.10
2018-09-14T18:30:05.107Z,7.00
2018-09-14T18:32:40.231Z,8.37
2018-09-14T18:35:16.165Z,8.17
2018-09-14T18:37:52.126Z,8.90
2018-09-14T18:40:27.642Z,8.20
2018-09-14T18:43:03.351Z,7.23
2018-09-14T18:45:38.152Z,7.67
2018-09-14T18:48:14.065Z,8.53
2018-09-14T18:50:49.692Z,9.27
2018-09-14T18:53:25.699Z,7.97
2018-09-14T18:56:02.069Z,9.67
2018-09-14T18:58:37.452Z,8.53
2018-09-14T19:01:13.192Z,9.40
2018-09-14T19:03:49.149Z,8.50
2018-09-14T19:06:24.689Z,7.40
2018-09-14T19:08:59.571Z,7.30
2018-09-14T19:11:34.473Z,7.90
2018-09-14T19:14:10.304Z,10.80
2018-09-14T19:16:46.639Z,8.17
2018-09-14T19:19:22.129Z,7.90
2018-09-14T19:21:56.773Z,7.90
2018-09-14T19:24:31.649Z,7.40
2018-09-14T19:27:06.912Z,8.70
2018-09-14T19:29:42.689Z,9.10
2018-09-14T19:32:17.998Z,8.40
2018-09-14T19:34:52.949Z,8.33
2018-09-14T19:37:27.875Z,8.97
2018-09-14T19:40:03.547Z,9.10
2018-09-14T19:42:39.015Z,9.80
2018-09-14T19:45:14.631Z,8.70
2018-09-14T19:47:49.690Z,8.10
2018-09-14T19:50:25.531Z,8.27
2018-09-14T19:53:01.355Z,8.70
2018-09-14T19:55:37.210Z,7.40
2018-09-14T19:58:16.270Z,8.77
2018-09-14T20:00:51.609Z,8.70
2018-09-14T20:03:26.401Z,9.20
2018-09-14T20:06:02.158Z,9.63
2018-09-14T20:08:37.162Z,10.67
2018-09-14T20:11:12.159Z,9.50
2018-09-14T20:13:47.054Z,8.03
2018-09-14T20:16:22.422Z,8.00
2018-09-14T20:18:58.605Z,8.77
2018-09-14T20:21:35.720Z,8.33
2018-09-14T20:24:10.620Z,9.37
2018-09-14T20:26:45.658Z,7.70
2018-09-14T20:29:21.155Z,8.03
2018-09-14T20:31:56.771Z,9.40
2018-09-14T20:34:33.617Z,9.80
2018-09-14T20:37:10.671Z,9.17
2018-09-14T20:39:46.130Z,10.10
2018-09-14T20:42:22.488Z,10.53
2018-09-14T20:44:58.869Z,11.30
2018-09-14T20:47:34.436Z,9.27
2018-09-14T20:50:10.415Z,9.33
2018-09-14T20:52:46.357Z,9.80
2018-09-14T20:55:22.352Z,11.40
2018-09-14T20:57:57.703Z,19.00
2018-09-14T21:00:32.321Z,10.53
2018-09-14T21:03:07.853Z,10.20
2018-09-14T21:05:43.057Z,10.97
2018-09-14T21:08:19.055Z,11.23
2018-09-14T21:10:54.684Z,10.67
2018-09-14T21:13:29.699Z,12.83
2018-09-14T21:16:05.167Z,11.67
2018-09-14T21:18:40.056Z,12.87
2018-09-14T21:21:15.639Z,11.10
2018-09-14T21:23:50.956Z,13.03
2018-09-14T21:26:26.444Z,10.03
2018-09-14T21:29:02.141Z,10.27
2018-09-14T21:31:37.875Z,10.50
2018-09-14T21:34:12.779Z,10.00
2018-09-14T21:36:48.245Z,10.37
2018-09-14T21:39:23.743Z,10.00
2018-09-14T21:41:58.929Z,10.20
2018-09-14T21:44:33.730Z,10.30
2018-09-14T21:47:08.820Z,10.10
2018-09-14T21:49:44.598Z,10.80
2018-09-14T21:52:19.779Z,9.43
2018-09-14T21:54:54.675Z,10.20
2018-09-14T21:57:30.426Z,11.67
2018-09-14T22:00:11.524Z,13.17
2018-09-14T22:02:47.298Z,11.03
2018-09-14T22:05:22.466Z,10.93
2018-09-14T22:07:57.565Z,10.90
2018-09-14T22:10:33.570Z,10.53
2018-09-14T22:13:10.317Z,12.43
2018-09-14T22:15:45.885Z,14.37
2018-09-14T22:18:21.646Z,11.43
2018-09-14T22:21:04.532Z,11.40
2018-09-14T22:23:39.515Z,11.73
2018-09-14T22:26:14.136Z,13.63
2018-09-14T22:28:48.761Z,12.87
2018-09-14T22:31:23.951Z,14.40
2018-09-14T22:33:58.706Z,14.50
2018-09-14T22:36:33.587Z,13.90
2018-09-14T22:39:09.869Z,13.23
2018-09-14T22:41:44.504Z,12.00
2018-09-14T22:44:19.449Z,13.17
2018-09-14T22:46:55.101Z,14.17
2018-09-14T22:49:29.835Z,12.83
2018-09-14T22:52:04.676Z,11.57
2018-09-14T22:54:40.158Z,14.13
2018-09-14T22:57:15.444Z,14.10
2018-09-14T22:59:50.300Z,12.60
2018-09-14T23:02:25.108Z,12.77
2018-09-14T23:04:59.900Z,13.50
2018-09-14T23:07:34.865Z,13.27
2018-09-14T23:10:10.545Z,14.33
2018-09-14T23:12:45.626Z,13.77
2018-09-14T23:15:21.063Z,14.67
2018-09-14T23:17:55.787Z,12.57
2018-09-14T23:20:31.045Z,16.83
2018-09-14T23:23:05.816Z,12.90
2018-09-14T23:25:41.094Z,13.70
2018-09-14T23:28:15.688Z,13.27
2018-09-14T23:30:50.575Z,13.40
2018-09-14T23:33:25.968Z,15.00
2018-09-14T23:36:00.453Z,14.20
2018-09-14T23:38:35.389Z,14.53
2018-09-14T23:41:10.123Z,14.07
2018-09-14T23:43:44.977Z,14.50
2018-09-14T23:46:19.905Z,13.37
2018-09-14T23:48:54.940Z,14.37
2018-09-14T23:51:30.278Z,14.30
2018-09-14T23:54:05.553Z,16.27
2018-09-14T23:56:40.378Z,13.60
2018-09-14T23:59:15.239Z,12.83
